Time;durP1;ratioP1;P1;durP2;ratioP2;P2;SDS_P1;SDS_P2;PMS_P1;PMS_P2;Temp;Humidity;BMP_temperature;BMP_pressure;BME280_temperature;BME280_humidity;BME280_pressure;Samples;Min_cycle;Max_cycle;Signal;HPM_P1;HPM_P2
2024/01/18 00:03:06;;;;;;;25.08;18.10;;;;;;;-2.17;100.00;99068.97;10196862;28;20509;-69
2024/01/18 00:08:03;;;;;;;24.88;19.67;;;;;;;-2.12;100.00;99089.59;10194357;28;20131;-69
2024/01/18 00:12:59;;;;;;;26.00;18.48;;;;;;;-1.98;100.00;99085.22;10197414;28;20493;-69
2024/01/18 00:17:56;;;;;;;23.95;18.33;;;;;;;-2.10;100.00;99087.44;10196156;28;20053;-69
2024/01/18 00:22:52;;;;;;;22.92;19.52;;;;;;;-2.12;100.00;99100.28;10197033;28;20122;-69
2024/01/18 00:27:49;;;;;;;25.25;19.58;;;;;;;-2.21;100.00;99107.28;10194951;28;20517;-69
2024/01/18 00:32:45;;;;;;;30.23;18.65;;;;;;;-2.19;100.00;99113.19;10193897;28;20054;-69
2024/01/18 00:37:42;;;;;;;26.75;20.92;;;;;;;-2.24;100.00;99107.84;10195542;28;20526;-69
2024/01/18 00:42:38;;;;;;;28.70;20.60;;;;;;;-2.21;100.00;99118.00;10196144;28;20045;-69
2024/01/18 00:47:35;;;;;;;26.08;19.48;;;;;;;-2.13;100.00;99125.47;10195861;28;20509;-70
2024/01/18 00:52:32;;;;;;;28.00;21.38;;;;;;;-2.15;100.00;99133.78;10195580;28;20403;-69
2024/01/18 00:57:28;;;;;;;28.55;21.60;;;;;;;-2.16;100.00;99132.19;10194529;28;20064;-69
2024/01/18 01:02:25;;;;;;;26.45;19.05;;;;;;;-2.22;100.00;99137.81;10194602;28;20111;-68
2024/01/18 01:07:21;;;;;;;30.75;21.25;;;;;;;-2.22;100.00;99143.19;10194846;28;20186;-69
2024/01/18 01:12:18;;;;;;;30.23;21.42;;;;;;;-2.26;100.00;99158.19;10190869;28;20579;-69
2024/01/18 01:17:15;;;;;;;26.48;21.52;;;;;;;-2.24;100.00;99156.03;10194206;28;20080;-69
2024/01/18 01:22:11;;;;;;;29.30;21.48;;;;;;;-2.19;100.00;99169.41;10194526;28;20041;-70
2024/01/18 01:27:08;;;;;;;32.65;22.17;;;;;;;-2.11;100.00;99176.91;10193680;28;20048;-69
2024/01/18 01:32:05;;;;;;;27.83;21.33;;;;;;;-2.13;100.00;99189.75;10187660;28;20053;-69
2024/01/18 01:37:01;;;;;;;33.67;21.77;;;;;;;-2.15;100.00;99175.84;10193931;28;20057;-71
2024/01/18 01:41:58;;;;;;;28.10;21.00;;;;;;;-2.17;100.00;99194.03;10193652;28;20502;-71
2024/01/18 01:46:54;;;;;;;34.80;21.98;;;;;;;-2.21;100.00;99198.31;10192337;28;20061;-68
2024/01/18 01:51:52;;;;;;;28.30;21.88;;;;;;;-2.24;100.00;99193.53;10194255;28;20057;-68
2024/01/18 01:56:51;;;;;;;34.15;22.77;;;;;;;-2.26;100.00;99211.72;10192833;28;20046;-68
2024/01/18 02:01:49;;;;;;;29.90;22.40;;;;;;;-2.26;100.00;99206.38;10187053;28;20132;-69
2024/01/18 02:06:49;;;;;;;26.10;21.90;;;;;;;-2.35;100.00;99209.56;10191718;28;20806;-69
2024/01/18 02:11:46;;;;;;;30.73;22.67;;;;;;;-2.42;100.00;99213.59;10191525;28;20107;-69
2024/01/18 02:16:43;;;;;;;28.65;21.60;;;;;;;-2.44;100.00;99219.22;10190658;28;20042;-69
2024/01/18 02:21:39;;;;;;;28.50;21.85;;;;;;;-2.49;100.00;99219.22;10191364;28;20046;-69
2024/01/18 02:26:36;;;;;;;28.27;23.15;;;;;;;-2.53;100.00;99220.84;10191746;28;20049;-68
2024/01/18 02:31:32;;;;;;;29.33;22.85;;;;;;;-2.57;100.00;99235.84;10190579;28;20046;-68
2024/01/18 02:36:29;;;;;;;32.20;23.17;;;;;;;-2.65;100.00;99233.69;10191590;28;20042;-68
2024/01/18 02:41:26;;;;;;;31.63;23.27;;;;;;;-2.70;100.00;99234.47;10191721;28;20042;-69
2024/01/18 02:46:23;;;;;;;37.17;22.95;;;;;;;-2.76;100.00;99236.34;10190640;28;20062;-69
2024/01/18 02:51:19;;;;;;;27.63;22.45;;;;;;;-2.86;100.00;99236.31;10192168;28;20045;-69
2024/01/18 02:56:16;;;;;;;28.02;22.77;;;;;;;-2.96;100.00;99241.69;10191060;28;20065;-69
2024/01/18 03:01:12;;;;;;;32.42;23.40;;;;;;;-2.90;100.00;99240.63;10184186;28;20502;-69
2024/01/18 03:06:09;;;;;;;24.90;21.40;;;;;;;-2.84;100.00;99239.53;10191715;28;20567;-69
2024/01/18 03:11:05;;;;;;;37.88;21.98;;;;;;;-2.86;100.00;99239.00;10191270;28;20072;-68
2024/01/18 03:16:02;;;;;;;31.08;22.73;;;;;;;-2.90;100.00;99240.63;10190404;28;20050;-69
2024/01/18 03:20:59;;;;;;;26.05;21.42;;;;;;;-2.90;100.00;99240.63;10191865;28;20061;-69
2024/01/18 03:25:55;;;;;;;33.92;22.52;;;;;;;-2.97;100.00;99248.06;10190390;28;20515;-69
2024/01/18 03:30:52;;;;;;;26.73;22.13;;;;;;;-3.08;100.00;99246.47;10191256;28;20074;-71
2024/01/18 03:35:48;;;;;;;32.25;22.58;;;;;;;-3.15;100.00;99253.94;10193232;28;20425;-68
2024/01/18 03:40:45;;;;;;;25.23;21.15;;;;;;;-3.28;100.00;99256.03;10198927;28;20445;-69
2024/01/18 03:45:41;;;;;;;27.10;22.30;;;;;;;-3.35;100.00;99260.81;10193888;28;20565;-68
2024/01/18 03:50:38;;;;;;;29.25;22.33;;;;;;;-3.34;100.00;99262.44;10198455;28;20046;-69
2024/01/18 03:55:35;;;;;;;28.58;23.13;;;;;;;-3.27;100.00;99257.63;10197191;28;20053;-71
2024/01/18 04:00:31;;;;;;;27.83;23.33;;;;;;;-3.28;100.00;99264.03;10197714;28;20041;-68
2024/01/18 04:05:28;;;;;;;31.13;25.77;;;;;;;-3.33;100.00;99261.34;10196978;28;20046;-69
2024/01/18 04:10:24;;;;;;;28.83;24.38;;;;;;;-3.23;100.00;99260.56;10197765;28;20045;-69
2024/01/18 04:15:21;;;;;;;30.88;24.55;;;;;;;-3.25;100.00;99260.84;10194026;28;20100;-69
2024/01/18 04:20:21;;;;;;;29.25;23.80;;;;;;;-3.27;100.00;99260.31;10197323;28;20141;-68
2024/01/18 04:25:18;;;;;;;27.85;24.75;;;;;;;-3.28;100.00;99261.38;10196227;28;20041;-69
2024/01/18 04:30:15;;;;;;;26.98;23.60;;;;;;;-3.26;100.00;99267.25;10196129;28;20058;-68
2024/01/18 04:35:12;;;;;;;33.38;24.67;;;;;;;-3.34;100.00;99277.63;10188416;28;20054;-69
2024/01/18 04:40:09;;;;;;;27.85;22.90;;;;;;;-3.41;100.00;99272.56;10196035;28;20116;-68
2024/01/18 04:45:06;;;;;;;31.08;24.25;;;;;;;-3.48;100.00;99271.97;10187713;28;20057;-69
2024/01/18 04:50:03;;;;;;;32.83;24.80;;;;;;;-3.53;100.00;99274.63;10187735;28;20050;-69
2024/01/18 04:55:04;;;;;;;29.70;24.95;;;;;;;-3.62;100.00;99291.16;10196302;28;20333;-69
2024/01/18 05:00:02;;;;;;;28.58;23.38;;;;;;;-3.62;100.00;99288.50;10194576;28;20516;-70
2024/01/18 05:04:58;;;;;;;31.83;24.73;;;;;;;-3.64;100.00;99297.81;10195495;28;20501;-68
2024/01/18 05:09:55;;;;;;;33.15;24.30;;;;;;;-3.64;100.00;99295.97;10194692;28;20045;-70
2024/01/18 05:14:51;;;;;;;27.98;25.05;;;;;;;-3.60;100.00;99302.41;10196147;28;20060;-70
2024/01/18 05:19:48;;;;;;;29.95;25.05;;;;;;;-3.64;100.00;99301.28;10200324;28;20076;-70
2024/01/18 05:24:44;;;;;;;31.33;25.35;;;;;;;-3.71;100.00;99305.25;10194617;28;20041;-70
2024/01/18 05:29:41;;;;;;;25.98;23.33;;;;;;;-3.73;100.00;99313.53;10186118;28;20077;-68
2024/01/18 05:34:37;;;;;;;37.42;25.15;;;;;;;-3.57;100.00;99316.28;10186507;28;20057;-69
2024/01/18 05:39:34;;;;;;;28.10;24.88;;;;;;;-3.63;100.00;99307.44;10193758;28;20054;-69
2024/01/18 05:44:30;;;;;;;28.30;24.42;;;;;;;-3.64;100.00;99314.66;10185921;28;20050;-70
2024/01/18 05:49:27;;;;;;;29.00;23.85;;;;;;;-3.56;100.00;99308.00;10192405;28;20046;-71
2024/01/18 05:54:23;;;;;;;31.40;25.95;;;;;;;-3.62;100.00;99317.88;10193306;28;20526;-70
2024/01/18 05:59:20;;;;;;;32.60;23.08;;;;;;;-3.62;100.00;99320.53;10192739;28;20050;-70
2024/01/18 06:04:16;;;;;;;27.63;24.63;;;;;;;-3.57;100.00;99326.97;10187375;28;20045;-71
2024/01/18 06:09:14;;;;;;;32.58;24.35;;;;;;;-3.67;100.00;99328.50;10193045;28;20056;-70
2024/01/18 06:14:11;;;;;;;29.90;23.90;;;;;;;-3.76;100.00;99340.75;10192823;28;20038;-70
2024/01/18 06:19:08;;;;;;;26.70;23.00;;;;;;;-3.78;100.00;99342.88;10192926;28;20042;-70
2024/01/18 06:24:05;;;;;;;28.92;24.20;;;;;;;-3.85;100.00;99339.63;10191733;28;20038;-71
2024/01/18 06:29:04;;;;;;;27.23;23.42;;;;;;;-3.71;100.00;99347.97;10193055;28;20046;-71
2024/01/18 06:34:00;;;;;;;29.20;24.45;;;;;;;-3.64;100.00;99357.41;10191985;28;20058;-71
2024/01/18 06:38:57;;;;;;;28.67;24.23;;;;;;;-3.68;100.00;99364.31;10191106;28;20089;-71
2024/01/18 06:43:54;;;;;;;30.83;23.77;;;;;;;-3.75;100.00;99369.06;10191995;28;20682;-70
2024/01/18 06:48:53;;;;;;;27.80;23.58;;;;;;;-3.78;100.00;99374.94;10183904;28;20050;-70
2024/01/18 06:53:51;;;;;;;33.95;24.50;;;;;;;-3.89;100.00;99384.72;10191868;28;20108;-70
2024/01/18 06:58:47;;;;;;;29.38;24.67;;;;;;;-3.87;100.00;99392.50;10191527;28;20042;-70
2024/01/18 07:03:44;;;;;;;29.20;23.77;;;;;;;-3.93;100.00;99393.50;10182811;28;20038;-71
2024/01/18 07:08:40;;;;;;;32.17;25.98;;;;;;;-3.95;100.00;99406.31;10191609;28;20074;-71
2024/01/18 07:13:37;;;;;;;29.80;24.20;;;;;;;-3.98;100.00;99412.16;10197724;28;20402;-70
2024/01/18 07:18:33;;;;;;;25.80;23.10;;;;;;;-4.03;100.00;99418.25;10194602;28;20080;-70
2024/01/18 07:23:30;;;;;;;28.20;24.20;;;;;;;-4.06;100.00;99432.91;10195380;28;20136;-68
2024/01/18 07:28:27;;;;;;;35.63;24.90;;;;;;;-4.07;100.00;99431.28;10198724;28;20417;-69
2024/01/18 07:33:23;;;;;;;29.83;23.92;;;;;;;-4.10;100.00;99442.50;10198036;28;20052;-69
2024/01/18 07:38:20;;;;;;;27.73;23.48;;;;;;;-4.05;100.00;99439.84;10198195;28;20049;-70
2024/01/18 07:43:16;;;;;;;30.65;24.92;;;;;;;-3.79;100.00;99448.09;10198157;28;20045;-68
2024/01/18 07:48:13;;;;;;;30.65;25.83;;;;;;;-3.67;100.00;99451.41;10197926;28;20041;-68
2024/01/18 07:53:11;;;;;;;27.75;24.83;;;;;;;-3.54;100.00;99444.03;10198167;28;20069;-70
2024/01/18 07:58:07;;;;;;;29.25;26.35;;;;;;;-3.50;100.00;99451.28;10200692;28;20116;-71
2024/01/18 08:03:04;;;;;;;32.47;28.30;;;;;;;-3.59;100.00;99463.50;10198345;28;20049;-71
2024/01/18 08:08:01;;;;;;;36.75;26.38;;;;;;;-3.55;100.00;99463.78;10196945;28;20112;-69
2024/01/18 08:12:59;;;;;;;33.35;28.25;;;;;;;-3.62;100.00;99475.50;10197437;28;20092;-70
2024/01/18 08:17:55;;;;;;;34.05;27.98;;;;;;;-3.60;100.00;99473.38;10195628;28;20073;-70
2024/01/18 08:22:52;;;;;;;29.00;25.80;;;;;;;-3.53;100.00;99488.38;10197122;28;20066;-71
2024/01/18 08:27:53;;;;;;;29.98;24.05;;;;;;;-3.34;100.00;99486.94;10196283;28;20069;-68
2024/01/18 08:32:49;;;;;;;34.75;22.73;;;;;;;-3.24;100.00;99496.91;10196102;28;20092;-71
2024/01/18 08:37:47;;;;;;;28.77;21.60;;;;;;;-3.20;100.00;99498.81;10196266;28;20050;-68
2024/01/18 08:42:45;;;;;;;27.77;22.50;;;;;;;-3.13;100.00;99511.13;10195802;28;20077;-68
2024/01/18 08:47:42;;;;;;;26.30;22.23;;;;;;;-3.00;100.00;99518.72;10195834;28;20165;-71
2024/01/18 08:52:39;;;;;;;25.60;22.67;;;;;;;-2.94;100.00;99523.03;10195174;28;20382;-71
2024/01/18 08:57:36;;;;;;;24.70;21.75;;;;;;;-2.85;100.00;99537.56;10195467;28;20060;-70
2024/01/18 09:02:32;;;;;;;27.77;21.75;;;;;;;-2.73;100.00;99549.94;10194909;28;20042;-70
2024/01/18 09:07:29;;;;;;;25.75;21.92;;;;;;;-2.64;100.00;99548.38;10194823;28;20638;-68
2024/01/18 09:12:26;;;;;;;24.90;22.02;;;;;;;-2.52;100.00;99556.22;10191047;28;20049;-70
2024/01/18 09:17:22;;;;;;;24.90;22.25;;;;;;;-2.38;100.00;99568.84;10193453;28;20041;-70
2024/01/18 09:22:19;;;;;;;25.20;20.85;;;;;;;-2.45;100.00;99568.28;10195132;28;20042;-70
2024/01/18 09:27:15;;;;;;;28.73;20.92;;;;;;;-2.35;100.00;99572.88;10193284;28;20046;-70
2024/01/18 09:32:12;;;;;;;24.60;20.77;;;;;;;-2.22;100.00;99587.69;10193892;28;20049;-70
2024/01/18 09:37:08;;;;;;;23.33;20.85;;;;;;;-2.10;100.00;99604.31;10193300;28;20395;-70
2024/01/18 09:42:12;;;;;;;23.13;20.55;;;;;;;-2.03;100.00;99596.84;10193978;28;20132;-70
2024/01/18 09:47:09;;;;;;;26.58;20.27;;;;;;;-1.96;100.00;99618.03;10193724;28;20050;-68
2024/01/18 09:52:05;;;;;;;25.42;19.38;;;;;;;-1.86;100.00;99633.34;10192819;28;20099;-71
2024/01/18 09:57:05;;;;;;;24.08;17.58;;;;;;;-1.59;100.00;99633.97;10193014;28;20049;-70
2024/01/18 10:02:03;;;;;;;21.13;16.45;;;;;;;-1.24;100.00;99639.69;10192658;28;20073;-70
2024/01/18 10:06:59;;;;;;;17.35;15.10;;;;;;;-1.00;100.00;99645.34;10192043;28;20045;-71
2024/01/18 10:11:59;;;;;;;19.95;14.35;;;;;;;-0.71;100.00;99653.69;10193121;28;20666;-71
2024/01/18 10:16:55;;;;;;;16.35;14.73;;;;;;;-0.03;100.00;99658.69;10191820;28;20519;-72
2024/01/18 10:21:52;;;;;;;18.42;13.93;;;;;;;0.24;100.00;99662.91;10191944;28;20086;-72
2024/01/18 10:27:00;;;;;;;17.42;12.57;;;;;;;0.15;100.00;99666.16;10191978;28;20390;-73
2024/01/18 10:31:58;;;;;;;15.80;13.27;;;;;;;0.19;100.00;99677.97;10193133;28;20402;-70
2024/01/18 10:36:55;;;;;;;17.13;13.48;;;;;;;0.33;100.00;99677.38;10191922;28;20460;-73
2024/01/18 10:41:52;;;;;;;17.02;13.10;;;;;;;0.53;100.00;99684.53;10192977;28;20089;-73
2024/01/18 10:46:49;;;;;;;14.55;11.68;;;;;;;0.43;100.00;99698.84;10197385;28;20050;-73
2024/01/18 10:51:48;;;;;;;16.40;12.50;;;;;;;0.66;100.00;99701.97;10199636;28;20054;-73
2024/01/18 10:56:45;;;;;;;13.68;12.02;;;;;;;0.52;100.00;99710.63;10200584;28;20066;-72
2024/01/18 11:01:41;;;;;;;18.80;10.68;;;;;;;0.67;100.00;99714.34;10199465;28;20050;-70
2024/01/18 11:06:39;;;;;;;14.68;10.70;;;;;;;1.23;100.00;99711.31;10199707;28;20070;-73
2024/01/18 11:11:35;;;;;;;12.82;11.35;;;;;;;0.85;100.00;99724.47;10199192;28;20042;-73
2024/01/18 11:16:32;;;;;;;11.98;10.70;;;;;;;1.04;100.00;99727.31;10199396;28;20453;-72
2024/01/18 11:21:40;;;;;;;11.60;10.50;;;;;;;1.24;100.00;99731.78;10198700;28;20068;-73
2024/01/18 11:26:36;;;;;;;11.40;9.60;;;;;;;1.95;100.00;99726.88;10198111;28;20053;-70
2024/01/18 11:31:49;;;;;;;14.38;9.38;;;;;;;1.60;100.00;99736.88;10197962;28;20394;-73
2024/01/18 11:36:49;;;;;;;;;;;;;;;1.82;100.00;99749.94;10198672;28;20057;-73
2024/01/18 11:41:49;;;;;;;13.05;8.70;;;;;;;2.16;100.00;99749.88;10198000;28;19975;-72
2024/01/18 11:46:48;;;;;;;9.38;8.40;;;;;;;1.72;100.00;99745.44;10190818;28;20134;-73
2024/01/18 11:51:46;;;;;;;11.38;8.23;;;;;;;1.90;100.00;99752.00;10196020;28;20057;-72
2024/01/18 11:56:47;;;;;;;10.57;8.02;;;;;;;1.94;100.00;99773.81;10195380;28;20080;-72
2024/01/18 12:01:44;;;;;;;15.50;7.78;;;;;;;1.76;100.00;99778.78;10197356;28;20077;-73
2024/01/18 12:06:40;;;;;;;12.75;8.40;;;;;;;1.91;100.00;99769.00;10196441;28;20046;-72
2024/01/18 12:11:37;;;;;;;10.93;7.18;;;;;;;2.45;100.00;99776.81;10197972;28;20540;-73
2024/01/18 12:16:34;;;;;;;9.20;7.45;;;;;;;1.97;100.00;99784.03;10196355;28;20049;-70
2024/01/18 12:21:30;;;;;;;10.15;7.03;;;;;;;2.69;100.00;99784.91;10197549;28;20124;-70
2024/01/18 12:26:27;;;;;;;8.10;6.60;;;;;;;-146.18;100.00;67994.34;10195906;28;20050;-73
2024/01/18 12:31:23;;;;;;;8.85;7.20;;;;;;;-146.18;100.00;67994.34;10196844;28;20053;-70
2024/01/18 12:36:20;;;;;;;7.60;6.80;;;;;;;-146.18;100.00;67994.34;10195814;28;20108;-72
2024/01/18 12:41:17;;;;;;;8.32;6.55;;;;;;;-146.18;100.00;67994.34;10196696;28;20042;-72
2024/01/18 12:46:14;;;;;;;9.32;5.75;;;;;;;-146.18;100.00;67994.34;10194527;28;20132;-69
2024/01/18 12:51:11;;;;;;;12.45;6.28;;;;;;;-146.18;100.00;67994.34;10196263;28;20041;-70
2024/01/18 12:56:12;;;;;;;6.78;5.60;;;;;;;-146.18;100.00;67994.34;10194282;28;20417;-72
2024/01/18 13:01:09;;;;;;;11.60;6.17;;;;;;;2.69;100.00;99784.91;10195664;28;20046;-71
2024/01/18 13:06:06;;;;;;;6.63;6.03;;;;;;;5.08;100.00;99812.91;10193914;28;20054;-72
2024/01/18 13:11:03;;;;;;;6.05;5.45;;;;;;;5.02;100.00;99825.00;10194284;28;20058;-71
2024/01/18 13:15:59;;;;;;;6.10;5.50;;;;;;;4.49;100.00;99833.59;10194680;28;20046;-72
2024/01/18 13:20:56;;;;;;;5.70;5.10;;;;;;;4.08;100.00;99845.91;10193850;28;20066;-72
2024/01/18 13:25:53;;;;;;;6.10;4.40;;;;;;;3.67;100.00;99856.59;10193603;28;20052;-71
2024/01/18 13:30:50;;;;;;;5.50;3.90;;;;;;;2.68;100.00;99858.88;10194716;28;20049;-72
2024/01/18 13:35:46;;;;;;;5.03;4.53;;;;;;;2.76;100.00;99870.13;10193933;28;20414;-72
2024/01/18 13:40:43;;;;;;;6.50;4.32;;;;;;;2.46;100.00;99885.53;10194288;28;20050;-71
2024/01/18 13:45:39;;;;;;;4.63;4.10;;;;;;;2.62;100.00;99892.41;10192852;28;20050;-71
2024/01/18 13:50:36;;;;;;;5.35;4.00;;;;;;;2.69;100.00;99903.69;10194131;28;20049;-71
2024/01/18 13:55:32;;;;;;;8.02;4.15;;;;;;;3.10;100.00;99910.53;10192601;28;20046;-71
2024/01/18 14:00:29;;;;;;;4.75;4.20;;;;;;;2.25;100.00;99926.19;10194214;28;20044;-72
2024/01/18 14:05:28;;;;;;;6.78;4.85;;;;;;;2.41;100.00;99929.53;10192021;28;20612;-71
2024/01/18 14:10:25;;;;;;;6.22;3.65;;;;;;;2.41;100.00;99934.13;10193929;28;20072;-72
2024/01/18 14:15:21;;;;;;;6.22;4.35;;;;;;;3.09;100.00;99941.34;10192249;28;20421;-70
2024/01/18 14:20:18;;;;;;;6.55;3.67;;;;;;;2.97;100.00;99947.16;10191835;28;20474;-71
2024/01/18 14:25:14;;;;;;;6.57;4.00;;;;;;;3.46;100.00;99959.56;10192697;28;20449;-71
2024/01/18 14:30:11;;;;;;;10.00;3.72;;;;;;;2.52;100.00;99973.44;10192208;28;20049;-71
2024/01/18 14:35:11;;;;;;;11.55;4.45;;;;;;;1.88;100.00;99976.03;10192557;28;20145;-71
2024/01/18 14:40:11;;;;;;;6.28;3.67;;;;;;;1.69;100.00;99980.44;10191938;28;20054;-72
2024/01/18 14:45:08;;;;;;;9.57;4.50;;;;;;;1.60;100.00;100000.94;10190679;28;20498;-71
2024/01/18 14:50:05;;;;;;;5.60;4.18;;;;;;;1.38;100.00;100004.81;10192816;28;20048;-71
2024/01/18 14:55:01;;;;;;;4.13;3.60;;;;;;;1.20;100.00;100008.09;10192058;28;20049;-72
2024/01/18 14:59:58;;;;;;;6.07;3.70;;;;;;;1.11;100.00;100025.88;10192520;28;20042;-71
2024/01/18 15:04:54;;;;;;;6.60;3.95;;;;;;;1.03;100.00;100041.50;10191208;28;20046;-71
2024/01/18 15:09:51;;;;;;;5.60;4.43;;;;;;;0.87;100.00;100053.34;10191252;28;20757;-71
2024/01/18 15:14:49;;;;;;;5.15;3.90;;;;;;;0.77;100.00;100069.50;10191773;28;20056;-71
2024/01/18 15:19:46;;;;;;;6.25;4.65;;;;;;;0.65;100.00;100083.22;10191083;28;20049;-71
2024/01/18 15:24:42;;;;;;;5.95;4.47;;;;;;;0.61;100.00;100093.69;10190459;28;20421;-71
2024/01/18 15:29:41;;;;;;;7.28;4.93;;;;;;;0.52;100.00;100110.63;10191447;28;20104;-72
2024/01/18 15:34:39;;;;;;;5.65;4.75;;;;;;;0.47;100.00;100127.56;10197602;28;20536;-71
2024/01/18 15:39:36;;;;;;;7.70;5.53;;;;;;;0.36;100.00;100144.75;10197812;28;20072;-71
2024/01/18 15:44:33;;;;;;;10.82;5.65;;;;;;;0.29;100.00;100146.88;10198215;28;20074;-71
2024/01/18 15:49:31;;;;;;;9.43;8.15;;;;;;;0.23;100.00;100166.72;10197886;28;20057;-71
2024/01/18 15:54:27;;;;;;;13.35;6.25;;;;;;;0.09;100.00;100167.19;10197100;28;20064;-71
2024/01/18 15:59:24;;;;;;;8.27;6.80;;;;;;;0.04;100.00;100172.56;10198728;28;20049;-71
2024/01/18 16:04:20;;;;;;;6.88;6.22;;;;;;;-0.03;100.00;100190.81;10196217;28;20049;-72
2024/01/18 16:09:17;;;;;;;11.20;6.80;;;;;;;-0.14;100.00;100207.94;10197786;28;20604;-71
2024/01/18 16:14:13;;;;;;;7.82;7.13;;;;;;;-0.14;100.00;100216.00;10196148;28;20062;-70
2024/01/18 16:19:10;;;;;;;10.73;7.43;;;;;;;-0.13;100.00;100225.69;10197525;28;20100;-71
2024/01/18 16:24:08;;;;;;;7.82;7.07;;;;;;;-0.13;100.00;100236.44;10195428;28;20049;-71
2024/01/18 16:29:04;;;;;;;8.50;7.70;;;;;;;-0.25;100.00;100240.13;10196136;28;20056;-70
2024/01/18 16:34:00;;;;;;;8.75;7.50;;;;;;;-0.25;100.00;100253.53;10196307;28;20205;-71
2024/01/18 16:38:57;;;;;;;11.93;7.80;;;;;;;-0.17;100.00;100254.13;10195588;28;20420;-71
2024/01/18 16:43:54;;;;;;;7.95;7.28;;;;;;;-0.27;100.00;100261.06;10195864;28;20505;-70
2024/01/18 16:48:50;;;;;;;8.82;7.75;;;;;;;-0.32;100.00;100269.06;10195930;28;20057;-71
2024/01/18 16:53:47;;;;;;;9.38;7.82;;;;;;;-0.36;100.00;100272.53;10187869;28;20057;-70
2024/01/18 16:58:43;;;;;;;8.85;8.15;;;;;;;-0.40;100.00;100293.72;10195394;28;20577;-71
2024/01/18 17:03:40;;;;;;;10.65;8.25;;;;;;;-0.47;100.00;100291.22;10195145;28;20045;-71
2024/01/18 17:08:37;;;;;;;12.55;8.55;;;;;;;-0.46;100.00;100306.28;10192897;28;20104;-70
2024/01/18 17:13:33;;;;;;;9.27;8.40;;;;;;;-0.49;100.00;100311.34;10195210;28;20402;-71
2024/01/18 17:18:30;;;;;;;11.73;8.95;;;;;;;-0.40;100.00;100314.41;10194146;28;20394;-71
2024/01/18 17:23:26;;;;;;;8.82;8.13;;;;;;;-0.54;100.00;100314.00;10194824;28;20062;-70
2024/01/18 17:28:23;;;;;;;10.35;8.52;;;;;;;-0.57;100.00;100326.06;10193709;28;20728;-70
2024/01/18 17:33:20;;;;;;;9.60;8.32;;;;;;;-0.57;100.00;100336.00;10194507;28;20046;-71
2024/01/18 17:38:17;;;;;;;9.30;8.60;;;;;;;-0.62;100.00;100338.63;10193374;28;20128;-69
2024/01/18 17:43:13;;;;;;;9.82;9.02;;;;;;;-0.64;100.00;100346.94;10194449;28;20045;-70
2024/01/18 17:48:10;;;;;;;9.90;8.95;;;;;;;-0.71;100.00;100352.50;10193119;28;20049;-71
2024/01/18 17:53:07;;;;;;;9.48;8.68;;;;;;;-0.76;100.00;100365.88;10192640;28;20046;-70
2024/01/18 17:58:04;;;;;;;9.57;8.88;;;;;;;-0.74;100.00;100379.03;10193417;28;20073;-70
2024/01/18 18:03:00;;;;;;;11.95;8.93;;;;;;;-0.78;100.00;100370.66;10184249;28;20140;-70
2024/01/18 18:07:59;;;;;;;9.65;8.68;;;;;;;-0.80;100.00;100386.22;10192147;28;20183;-70
2024/01/18 18:12:55;;;;;;;12.77;9.90;;;;;;;-0.83;100.00;100386.72;10192417;28;20049;-70
2024/01/18 18:17:52;;;;;;;10.13;9.20;;;;;;;-0.89;100.00;100398.44;10192770;28;20448;-71
2024/01/18 18:22:49;;;;;;;9.95;9.05;;;;;;;-0.90;100.00;100407.56;10191668;28;20055;-71
2024/01/18 18:27:45;;;;;;;9.90;8.98;;;;;;;-0.94;100.00;100417.19;10192142;28;20046;-70
2024/01/18 18:32:42;;;;;;;10.23;9.27;;;;;;;-0.97;100.00;100423.06;10192614;28;20052;-70
2024/01/18 18:37:39;;;;;;;12.00;10.05;;;;;;;-1.06;100.00;100426.16;10192485;28;20079;-70
2024/01/18 18:42:35;;;;;;;10.43;9.48;;;;;;;-1.13;100.00;100436.25;10191649;28;20501;-70
2024/01/18 18:47:31;;;;;;;11.63;9.82;;;;;;;-1.13;100.00;100446.19;10192038;28;20518;-70
2024/01/18 18:52:31;;;;;;;9.70;8.82;;;;;;;-1.15;100.00;100449.09;10192539;28;20504;-70
2024/01/18 18:57:28;;;;;;;10.55;9.32;;;;;;;-1.17;100.00;100456.56;10191516;28;20046;-70
2024/01/18 19:02:24;;;;;;;13.00;9.45;;;;;;;-1.20;100.00;100454.41;10192638;28;20034;-70
2024/01/18 19:07:21;;;;;;;10.30;9.38;;;;;;;-1.23;100.00;100473.69;10195523;28;20057;-71
2024/01/18 19:12:19;;;;;;;10.23;9.18;;;;;;;-1.27;100.00;100467.16;10199847;28;20069;-71
2024/01/18 19:17:15;;;;;;;10.25;9.35;;;;;;;-1.28;100.00;100486.97;10198653;28;20042;-70
2024/01/18 19:22:12;;;;;;;10.65;9.60;;;;;;;-1.24;100.00;100498.84;10199962;28;20056;-70
2024/01/18 19:27:10;;;;;;;11.70;9.60;;;;;;;-1.23;100.00;100508.56;10197292;28;20392;-70
2024/01/18 19:32:07;;;;;;;10.77;9.55;;;;;;;-1.27;100.00;100507.41;10198840;28;20056;-70
2024/01/18 19:37:03;;;;;;;14.40;9.18;;;;;;;-1.21;100.00;100519.00;10198168;28;20140;-70
2024/01/18 19:42:00;;;;;;;10.80;8.75;;;;;;;-1.25;100.00;100518.72;10199293;28;20520;-71
2024/01/18 19:46:57;;;;;;;9.55;8.60;;;;;;;-1.31;100.00;100517.00;10197262;28;20429;-71
2024/01/18 19:51:54;;;;;;;11.75;9.48;;;;;;;-1.30;100.00;100526.66;10199036;28;20056;-71
2024/01/18 19:56:51;;;;;;;12.77;9.63;;;;;;;-1.29;100.00;100533.66;10197622;28;20041;-70
2024/01/18 20:01:48;;;;;;;10.10;9.20;;;;;;;-1.28;100.00;100529.91;10197404;28;20058;-71
2024/01/18 20:06:45;;;;;;;9.07;8.20;;;;;;;-1.26;100.00;100543.88;10196164;28;20053;-71
2024/01/18 20:11:41;;;;;;;9.25;8.32;;;;;;;-1.25;100.00;100545.53;10197416;28;20042;-70
2024/01/18 20:16:38;;;;;;;11.98;8.70;;;;;;;-1.27;100.00;100547.66;10195761;28;20052;-70
2024/01/18 20:21:34;;;;;;;8.93;8.13;;;;;;;-1.30;100.00;100556.16;10197601;28;20057;-70
2024/01/18 20:26:31;;;;;;;9.45;8.52;;;;;;;-1.36;100.00;100559.81;10195895;28;20049;-70
2024/01/18 20:31:27;;;;;;;11.20;8.00;;;;;;;-1.31;100.00;100567.97;10197404;28;20049;-70
2024/01/18 20:36:24;;;;;;;23.65;13.35;;;;;;;-1.30;100.00;100575.78;10196121;28;20468;-70
2024/01/18 20:41:21;;;;;;;10.80;7.88;;;;;;;-1.26;100.00;100581.44;10196846;28;20532;-70
2024/01/18 20:46:17;;;;;;;9.35;8.55;;;;;;;-1.22;100.00;100592.53;10195352;28;20534;-70
2024/01/18 20:51:14;;;;;;;10.38;8.30;;;;;;;-1.18;100.00;100599.03;10195229;28;20049;-70
2024/01/18 20:56:10;;;;;;;9.18;8.48;;;;;;;-1.19;100.00;100625.03;10195190;28;20046;-70
2024/01/18 21:01:07;;;;;;;13.25;8.15;;;;;;;-1.20;100.00;100644.06;10195687;28;20213;-70
2024/01/18 21:06:04;;;;;;;8.82;8.13;;;;;;;-1.11;100.00;100631.88;10193697;28;20497;-70
2024/01/18 21:11:01;;;;;;;8.50;7.70;;;;;;;-1.06;100.00;100683.75;10195796;28;20042;-70
2024/01/18 21:15:57;;;;;;;7.78;7.07;;;;;;;-0.99;100.00;100680.13;10193577;28;20092;-70
2024/01/18 21:20:54;;;;;;;15.43;7.50;;;;;;;-0.94;100.00;100672.16;10194401;28;20056;-70
2024/01/18 21:25:51;;;;;;;9.70;6.95;;;;;;;-0.98;100.00;100695.16;10194821;28;20521;-70
2024/01/18 21:30:47;;;;;;;10.00;7.20;;;;;;;-0.85;100.00;100708.28;10192995;28;20108;-70
2024/01/18 21:35:44;;;;;;;10.43;7.45;;;;;;;-0.77;100.00;100705.19;10194064;28;20096;-70
2024/01/18 21:40:41;;;;;;;10.15;7.47;;;;;;;-0.69;100.00;100704.81;10190556;28;20042;-70
2024/01/18 21:45:38;;;;;;;11.15;7.40;;;;;;;-0.72;100.00;100709.81;10193904;28;20095;-70
2024/01/18 21:50:34;;;;;;;14.02;7.75;;;;;;;-0.76;100.00;100716.75;10194151;28;20062;-70
2024/01/18 21:55:33;;;;;;;8.60;7.75;;;;;;;-0.75;100.00;100727.25;10193921;28;20053;-70
2024/01/18 22:00:30;;;;;;;13.57;7.72;;;;;;;-0.77;100.00;100732.03;10192283;28;20041;-70
2024/01/18 22:05:27;;;;;;;7.95;7.25;;;;;;;-0.77;100.00;100745.47;10193398;28;20046;-71
2024/01/18 22:10:23;;;;;;;8.20;6.85;;;;;;;-0.92;100.00;100761.31;10193062;28;20424;-70
2024/01/18 22:15:20;;;;;;;11.15;8.57;;;;;;;-1.19;100.00;100753.81;10193125;28;20505;-70
2024/01/18 22:20:16;;;;;;;11.02;9.93;;;;;;;-1.39;100.00;100742.69;10188747;28;20486;-70
2024/01/18 22:25:14;;;;;;;8.90;8.10;;;;;;;-1.19;100.00;100710.88;10174901;28;20053;-71